EPPO/POZ METAR and TAF weather

Enter ICAO airport designator
Station Type Date Time Source
EPPO METAR 2018/01/21 12:30 UTC NOAA

EPPO 211230Z 34004KT 4900 BR OVC010 M00/M01 Q1013 R10/290095


Station Type Date Time Source
EPPO Decoded METAR 2018/01/21 12:30 UTC NOAA

Poznan, Poland (EPPO) 52-25N 016-50E 92M
Jan 21, 2018 - 07:30 AM EST / 2018.01.21 1230 UTC
Wind: from the NNW (340 degrees) at 5 MPH (4 KT):0
Visibility: 3 mile(s):0
Sky conditions: overcast
Weather: mist
Temperature: 32 F (0 C)
Windchill: 26 F (-3 C):1
Dew Point: 30 F (-1 C)
Relative Humidity: 92%
Pressure (altimeter): 29.91 in. Hg (1013 hPa)
ob: EPPO 211230Z 34004KT 4900 BR OVC010 M00/M01 Q1013 R10/290095
cycle: 12

Station Type Date Time Source
EPPO TAF 2018/01/21 12:33 UTC NOAA

TAF EPPO 211130Z 2112/2212 35004KT 3500 BR OVC005
TEMPO 2112/2119 6000 -SN SCT006 BKN016
BECMG 2119/2122 2000 BR
TEMPO 2123/2209 0300 FZFG BKN001
BECMG 2209/2212 13010KT 8000 SCT011


Example: see airport list